NCAR-RAP Real-Time Weather Data

Output produced by METARs form (19 April 2014  22:05 UTC)
found at http://weather.rap.ucar.edu/surface/
 
Conditions at: KLOU observed 19 April 2014  21:53 UTC
Temperature: 23.9°C (75°F)
Dewpoint: 2.2°C (36°F) [RH = 24%]
Pressure (altimeter): 30.20 inches Hg (1022.8 mb)
[Sea-level pressure: 1022.5 mb]
Winds: from the ENE (70 degrees) at 10 MPH (9 knots; 4.7 m/s)
Visibility: 10 or more miles (16+ km)
Ceiling: at least 12,000 feet AGL
Clouds: sky clear below 12,000 feet AGL
Present Weather: no significant weather observed at this time
KLOU 192153Z 07009KT 10SM CLR 24/02 A3020 RMK AO2 SLP225 T02390022